createdAt,value
2023-05-09T00:00:03.840Z,958.0089
2023-05-09T00:01:06.902Z,958.0194
2023-05-09T00:02:09.882Z,958.0276
2023-05-09T00:03:12.982Z,958.0306
2023-05-09T00:04:16.004Z,958.0488
2023-05-09T00:05:19.007Z,958.0682
2023-05-09T00:06:21.972Z,958.0800
2023-05-09T00:07:24.961Z,958.0724
2023-05-09T00:08:27.967Z,958.0706
2023-05-09T00:09:30.971Z,958.0500
2023-05-09T00:10:33.985Z,958.0406
2023-05-09T00:11:37.052Z,958.0300
2023-05-09T00:12:40.088Z,958.0142
2023-05-09T00:13:43.061Z,958.0024
2023-05-09T00:14:46.059Z,957.9971
2023-05-09T00:15:49.030Z,957.9777
2023-05-09T00:16:52.125Z,957.9559
2023-05-09T00:17:55.119Z,957.9476
2023-05-09T00:18:58.130Z,957.9382
2023-05-09T00:20:01.112Z,957.9235
2023-05-09T00:21:04.108Z,957.9041
2023-05-09T00:22:07.163Z,957.8941
2023-05-09T00:23:10.129Z,957.8894
2023-05-09T00:24:13.122Z,957.8994
2023-05-09T00:25:16.332Z,957.9030
2023-05-09T00:26:19.463Z,957.9065
2023-05-09T00:27:22.472Z,957.9070
2023-05-09T00:28:25.450Z,957.9070
2023-05-09T00:29:28.437Z,957.8959
2023-05-09T00:30:31.407Z,957.8729
2023-05-09T00:31:34.421Z,957.8524
2023-05-09T00:32:37.400Z,957.8353
2023-05-09T00:33:40.424Z,957.8265
2023-05-09T00:34:43.443Z,957.8118
2023-05-09T00:35:46.369Z,957.7912
2023-05-09T00:36:49.383Z,957.7742
2023-05-09T00:37:52.340Z,957.7635
2023-05-09T00:38:55.294Z,957.7518
2023-05-09T00:39:58.274Z,957.7471
2023-05-09T00:41:01.253Z,957.7411
2023-05-09T00:42:04.226Z,957.7429
2023-05-09T00:43:07.219Z,957.7494
2023-05-09T00:44:10.190Z,957.7482
2023-05-09T00:45:13.316Z,957.7382
2023-05-09T00:46:16.532Z,957.7224
2023-05-09T00:47:19.601Z,957.7006
2023-05-09T00:48:22.583Z,957.6853
2023-05-09T00:49:25.575Z,957.6741
2023-05-09T00:50:28.583Z,957.6606
2023-05-09T00:51:31.525Z,957.6523
2023-05-09T00:52:34.558Z,957.6424
2023-05-09T00:53:37.537Z,957.6365
2023-05-09T00:54:40.550Z,957.6300
2023-05-09T00:55:43.617Z,957.6300
2023-05-09T00:56:46.564Z,957.6271
2023-05-09T00:57:49.531Z,957.6318
2023-05-09T00:58:52.521Z,957.6306
2023-05-09T00:59:55.516Z,957.6224
2023-05-09T01:00:58.837Z,957.6076
2023-05-09T01:02:01.837Z,957.5930
2023-05-09T01:03:04.920Z,957.5724
2023-05-09T01:04:07.938Z,957.5694
2023-05-09T01:05:10.965Z,957.5676
2023-05-09T01:06:13.965Z,957.5600
2023-05-09T01:07:16.942Z,957.5571
2023-05-09T01:08:19.894Z,957.5558
2023-05-09T01:09:23.138Z,957.5612
2023-05-09T01:10:26.127Z,957.5471
2023-05-09T01:11:29.134Z,957.5447
2023-05-09T01:12:32.114Z,957.5330
2023-05-09T01:13:35.138Z,957.5271
2023-05-09T01:14:38.142Z,957.5236
2023-05-09T01:15:41.200Z,957.5189
2023-05-09T01:16:44.151Z,957.4994
2023-05-09T01:17:47.161Z,957.4694
2023-05-09T01:18:50.109Z,957.4465
2023-05-09T01:19:53.079Z,957.4129
2023-05-09T01:20:56.064Z,957.3806
2023-05-09T01:21:59.088Z,957.3530
2023-05-09T01:23:02.017Z,957.3336
2023-05-09T01:24:05.005Z,957.3076
2023-05-09T01:25:08.227Z,957.2865
2023-05-09T01:26:11.203Z,957.2671
2023-05-09T01:27:14.229Z,957.2571
2023-05-09T01:28:17.189Z,957.2465
2023-05-09T01:29:20.427Z,957.2441
2023-05-09T01:30:23.449Z,957.2424
2023-05-09T01:31:26.506Z,957.2429
2023-05-09T01:32:29.514Z,957.2518
2023-05-09T01:33:32.459Z,957.2642
2023-05-09T01:34:35.461Z,957.2694
2023-05-09T01:35:38.428Z,957.2606
2023-05-09T01:36:41.388Z,957.2576
2023-05-09T01:37:44.405Z,957.2542
2023-05-09T01:38:47.341Z,957.2458
2023-05-09T01:39:50.348Z,957.2329
2023-05-09T01:40:53.362Z,957.2123
2023-05-09T01:41:56.899Z,957.1971
2023-05-09T01:42:59.889Z,957.1711
2023-05-09T01:44:02.910Z,957.1530
2023-05-09T01:45:06.220Z,957.1353
2023-05-09T01:46:09.218Z,957.1353
2023-05-09T01:47:12.415Z,957.1218
2023-05-09T01:48:15.416Z,957.1088
2023-05-09T01:49:19.167Z,957.0982
2023-05-09T01:50:22.141Z,957.0894
2023-05-09T01:51:25.109Z,957.0706
2023-05-09T01:52:28.098Z,957.0441
2023-05-09T01:53:31.120Z,957.0359
2023-05-09T01:54:34.073Z,957.0394
2023-05-09T01:55:37.061Z,957.0482
2023-05-09T01:56:40.043Z,957.0612
2023-05-09T01:57:43.052Z,957.0800
2023-05-09T01:58:46.005Z,957.0747
2023-05-09T01:59:49.230Z,957.0865
2023-05-09T02:00:52.249Z,957.0800
2023-05-09T02:01:55.886Z,957.0876
2023-05-09T02:02:58.920Z,957.0965
2023-05-09T02:04:01.919Z,957.1129
2023-05-09T02:05:04.924Z,957.1229
2023-05-09T02:06:07.648Z,957.1320
2023-05-09T02:07:10.845Z,957.1282
2023-05-09T02:08:13.826Z,957.1259
2023-05-09T02:09:16.850Z,957.1200
2023-05-09T02:11:20.065Z,957.1318
2023-05-09T02:11:20.065Z,957.1567
2023-05-09T02:12:23.048Z,957.1617
2023-05-09T02:13:26.078Z,957.1835
2023-05-09T02:14:29.124Z,957.1924
2023-05-09T02:15:32.113Z,957.1900
2023-05-09T02:16:35.156Z,957.1818
2023-05-09T02:17:38.159Z,957.1806
2023-05-09T02:18:41.100Z,957.1724
2023-05-09T02:19:42.415Z,957.1644
2023-05-09T02:20:45.483Z,957.1553
2023-05-09T02:21:48.424Z,957.1518
2023-05-09T02:22:51.662Z,957.1406
2023-05-09T02:23:54.638Z,957.1412
2023-05-09T02:24:57.983Z,957.1318
2023-05-09T02:26:00.931Z,957.1135
2023-05-09T02:27:04.292Z,957.0883
2023-05-09T02:28:07.297Z,957.0653
2023-05-09T02:29:10.300Z,957.0535
2023-05-09T02:30:13.496Z,957.0424
2023-05-09T02:31:16.508Z,957.0253
2023-05-09T02:32:19.752Z,957.0165
2023-05-09T02:33:22.724Z,957.0065
2023-05-09T02:34:25.693Z,957.0012
2023-05-09T02:35:28.694Z,956.9994
2023-05-09T02:36:31.684Z,957.0006
2023-05-09T02:37:34.938Z,957.0018
2023-05-09T02:38:37.925Z,957.0071
2023-05-09T02:39:41.028Z,957.0129
2023-05-09T02:40:44.061Z,957.0082
2023-05-09T02:41:47.013Z,957.0089
2023-05-09T02:42:49.997Z,957.0059
2023-05-09T02:43:53.023Z,957.0135
2023-05-09T02:44:55.940Z,957.0153
2023-05-09T02:45:58.992Z,957.0224
2023-05-09T02:47:01.919Z,957.0218
2023-05-09T02:48:07.640Z,957.0106
2023-05-09T02:49:07.874Z,957.0025
2023-05-09T02:50:11.201Z,956.9976
2023-05-09T02:51:14.206Z,957.0042
2023-05-09T02:52:17.193Z,957.0042
2023-05-09T02:53:20.156Z,957.0065
2023-05-09T02:54:23.135Z,957.0012
2023-05-09T02:55:26.152Z,956.9900
2023-05-09T02:56:29.168Z,956.9782
2023-05-09T02:57:32.124Z,956.9711
2023-05-09T02:58:35.102Z,956.9712
2023-05-09T02:59:38.061Z,956.9788
2023-05-09T03:00:41.067Z,956.9794
2023-05-09T03:01:44.107Z,956.9806
2023-05-09T03:02:47.164Z,956.9735
2023-05-09T03:03:50.180Z,956.9670
2023-05-09T03:04:53.127Z,956.9647
2023-05-09T03:05:56.105Z,956.9612
2023-05-09T03:06:59.112Z,956.9536
2023-05-09T03:08:02.097Z,956.9542
2023-05-09T03:09:05.111Z,956.9623
2023-05-09T03:10:08.075Z,956.9758
2023-05-09T03:11:11.069Z,956.9847
2023-05-09T03:12:14.094Z,956.9941
2023-05-09T03:13:17.104Z,956.9935
2023-05-09T03:14:20.082Z,956.9859
2023-05-09T03:15:23.082Z,956.9682
2023-05-09T03:16:26.055Z,956.9512
2023-05-09T03:17:26.635Z,956.9363
2023-05-09T03:18:29.613Z,956.9188
2023-05-09T03:19:32.617Z,956.9082
2023-05-09T03:20:35.958Z,956.8936
2023-05-09T03:21:38.934Z,956.8853
2023-05-09T03:22:41.915Z,956.8665
2023-05-09T03:23:44.942Z,956.8694
2023-05-09T03:24:48.002Z,956.8788
2023-05-09T03:25:51.318Z,956.8976
2023-05-09T03:26:54.315Z,956.9129
2023-05-09T03:27:57.375Z,956.9258
2023-05-09T03:29:00.318Z,956.9400
2023-05-09T03:30:03.341Z,956.9476
2023-05-09T03:31:06.462Z,956.9512
2023-05-09T03:32:09.481Z,956.9347
2023-05-09T03:33:13.004Z,956.9094
2023-05-09T03:34:16.006Z,956.8812
2023-05-09T03:35:19.000Z,956.8423
2023-05-09T03:36:21.974Z,956.8218
2023-05-09T03:37:26.901Z,956.8058
2023-05-09T03:38:26.778Z,956.7950
2023-05-09T03:39:29.770Z,956.7870
2023-05-09T03:40:32.986Z,956.7789
2023-05-09T03:41:35.983Z,956.7789
2023-05-09T03:42:39.213Z,956.7877
2023-05-09T03:43:42.274Z,956.8065
2023-05-09T03:44:45.245Z,956.8200
2023-05-09T03:45:48.292Z,956.8282
2023-05-09T03:46:51.357Z,956.8318
2023-05-09T03:47:54.087Z,956.8250
2023-05-09T03:48:57.094Z,956.8159
2023-05-09T03:50:00.114Z,956.7994
2023-05-09T03:51:03.112Z,956.7988
2023-05-09T03:52:06.154Z,956.7929
2023-05-09T03:53:09.175Z,956.7900
2023-05-09T03:54:12.191Z,956.7830
2023-05-09T03:55:15.348Z,956.7759
2023-05-09T03:56:18.759Z,956.7736
2023-05-09T03:57:21.778Z,956.7612
2023-05-09T03:58:24.794Z,956.7647
2023-05-09T03:59:27.845Z,956.7689
2023-05-09T04:00:30.804Z,956.7870
2023-05-09T04:01:33.827Z,956.8018
2023-05-09T04:02:36.915Z,956.8106
2023-05-09T04:03:40.169Z,956.8206
2023-05-09T04:04:43.170Z,956.8312
2023-05-09T04:05:46.181Z,956.8406
2023-05-09T04:06:49.194Z,956.8400
2023-05-09T04:07:52.206Z,956.8465
2023-05-09T04:08:55.205Z,956.8477
2023-05-09T04:09:58.214Z,956.8571
2023-05-09T04:11:01.474Z,956.8611
2023-05-09T04:12:04.499Z,956.8547
2023-05-09T04:13:07.592Z,956.8559
2023-05-09T04:14:10.567Z,956.8541
2023-05-09T04:15:13.954Z,956.8547
2023-05-09T04:16:17.066Z,956.8517
2023-05-09T04:17:20.046Z,956.8482
2023-05-09T04:18:23.062Z,956.8435
2023-05-09T04:19:26.114Z,956.8336
2023-05-09T04:20:29.122Z,956.8294
2023-05-09T04:21:32.152Z,956.8324
2023-05-09T04:22:35.174Z,956.8336
2023-05-09T04:23:36.161Z,956.8400
2023-05-09T04:24:39.160Z,956.8400
2023-05-09T04:25:42.420Z,956.8477
2023-05-09T04:26:45.458Z,956.8517
2023-05-09T04:27:48.466Z,956.8629
2023-05-09T04:28:51.499Z,956.8635
2023-05-09T04:29:54.494Z,956.8465
2023-05-09T04:30:57.740Z,956.8194
2023-05-09T04:32:00.845Z,956.8018
2023-05-09T04:33:03.870Z,956.7982
2023-05-09T04:34:06.886Z,956.7994
2023-05-09T04:35:09.888Z,956.7935
2023-05-09T04:36:12.930Z,956.8100
2023-05-09T04:37:15.951Z,956.8147
2023-05-09T04:38:18.976Z,956.8306
2023-05-09T04:39:21.963Z,956.8459
2023-05-09T04:40:26.857Z,956.8641
2023-05-09T04:41:26.505Z,956.8725
2023-05-09T04:42:29.540Z,956.8759
2023-05-09T04:43:32.607Z,956.8735
2023-05-09T04:44:35.606Z,956.8635
2023-05-09T04:45:36.748Z,956.8475
2023-05-09T04:46:39.855Z,956.8124
2023-05-09T04:47:42.874Z,956.7718
2023-05-09T04:48:45.879Z,956.7488
2023-05-09T04:49:48.884Z,956.7294
2023-05-09T04:50:51.955Z,956.7206
2023-05-09T04:51:54.982Z,956.7194
2023-05-09T04:52:58.035Z,956.7229
2023-05-09T04:54:01.092Z,956.7318
2023-05-09T04:55:04.106Z,956.7465
2023-05-09T04:56:07.150Z,956.7765
2023-05-09T04:57:17.244Z,956.8029
2023-05-09T04:58:11.701Z,956.8047
2023-05-09T04:59:14.734Z,956.8088
2023-05-09T05:00:17.760Z,956.8047
2023-05-09T05:01:20.781Z,956.8106
2023-05-09T05:02:23.825Z,956.8129
2023-05-09T05:03:26.871Z,956.8147
2023-05-09T05:04:29.893Z,956.8124
2023-05-09T05:06:35.988Z,956.7894
2023-05-09T05:07:39.028Z,956.7612
2023-05-09T05:08:42.066Z,956.7358
2023-05-09T05:09:45.079Z,956.7253
2023-05-09T05:10:48.119Z,956.7159
2023-05-09T05:12:00.829Z,956.7135
2023-05-09T05:12:52.726Z,956.7206
2023-05-09T05:13:55.749Z,956.7329
2023-05-09T05:14:58.796Z,956.7288
2023-05-09T05:16:01.849Z,956.7341
2023-05-09T05:17:04.859Z,956.7264
2023-05-09T05:18:08.029Z,956.7130
2023-05-09T05:19:11.021Z,956.6965
2023-05-09T05:20:14.027Z,956.6924
2023-05-09T05:21:17.158Z,956.6876
2023-05-09T05:22:20.118Z,956.6971
2023-05-09T05:23:23.134Z,956.7071
2023-05-09T05:24:26.141Z,956.7089
2023-05-09T05:25:29.163Z,956.7083
2023-05-09T05:26:32.405Z,956.6807
2023-05-09T05:27:35.450Z,956.6341
2023-05-09T05:28:38.477Z,956.6188
2023-05-09T05:29:41.491Z,956.6188
2023-05-09T05:30:44.512Z,956.6253
2023-05-09T05:31:47.599Z,956.6329
2023-05-09T05:33:51.137Z,956.6389
2023-05-09T05:33:51.137Z,956.6429
2023-05-09T05:34:54.080Z,956.6459
2023-05-09T05:35:57.122Z,956.6453
2023-05-09T05:37:00.139Z,956.6406
2023-05-09T05:38:03.186Z,956.6535
2023-05-09T05:39:06.207Z,956.6800
2023-05-09T05:40:09.208Z,956.7106
2023-05-09T05:41:12.257Z,956.7306
2023-05-09T05:42:15.278Z,956.7524
2023-05-09T05:43:18.301Z,956.7624
2023-05-09T05:44:21.300Z,956.7712
2023-05-09T05:45:24.322Z,956.7694
2023-05-09T05:46:27.804Z,956.7624
2023-05-09T05:47:30.848Z,956.7535
2023-05-09T05:48:34.459Z,956.7471
2023-05-09T05:49:37.503Z,956.7506
2023-05-09T05:50:48.128Z,956.7529
2023-05-09T05:51:43.792Z,956.7614
2023-05-09T05:52:46.822Z,956.7559
2023-05-09T05:53:50.099Z,956.7647
2023-05-09T05:54:53.162Z,956.7736
2023-05-09T05:55:56.402Z,956.7535
2023-05-09T05:56:59.451Z,956.7318
2023-05-09T05:58:02.433Z,956.7118
2023-05-09T05:59:05.444Z,956.7012
2023-05-09T06:00:08.628Z,956.6786
2023-05-09T06:01:12.469Z,956.6694
2023-05-09T06:02:15.615Z,956.6429
2023-05-09T06:03:18.754Z,956.5977
2023-05-09T06:04:21.980Z,956.5453
2023-05-09T06:05:25.164Z,956.5271
2023-05-09T06:06:28.430Z,956.5065
2023-05-09T06:07:31.417Z,956.4935
2023-05-09T06:08:34.539Z,956.4764
2023-05-09T06:09:37.574Z,956.4583
2023-05-09T06:10:40.639Z,956.4588
2023-05-09T06:11:43.713Z,956.4759
2023-05-09T06:12:46.770Z,956.4958
2023-05-09T06:13:49.981Z,956.5112
2023-05-09T06:14:53.048Z,956.5194
2023-05-09T06:15:57.741Z,956.5147
2023-05-09T06:16:57.661Z,956.5100
2023-05-09T06:18:00.710Z,956.5076
2023-05-09T06:19:03.756Z,956.5124
2023-05-09T06:20:06.758Z,956.5229
2023-05-09T06:21:09.890Z,956.5411
2023-05-09T06:22:12.879Z,956.5477
2023-05-09T06:23:15.904Z,956.5618
2023-05-09T06:24:31.867Z,956.5582
2023-05-09T06:25:20.501Z,956.5480
2023-05-09T06:26:23.518Z,956.5382
2023-05-09T06:27:26.559Z,956.5142
2023-05-09T06:28:29.551Z,956.4794
2023-05-09T06:29:31.901Z,956.4762
2023-05-09T06:30:34.913Z,956.4553
2023-05-09T06:31:37.944Z,956.4341
2023-05-09T06:32:41.045Z,956.4341
2023-05-09T06:33:44.041Z,956.4211
2023-05-09T06:34:47.055Z,956.4141
2023-05-09T06:35:50.070Z,956.4171
2023-05-09T06:36:53.153Z,956.4147
2023-05-09T06:37:56.152Z,956.4041
2023-05-09T06:38:59.213Z,956.3976
2023-05-09T06:40:02.246Z,956.3871
2023-05-09T06:41:05.455Z,956.3394
2023-05-09T06:42:08.457Z,956.3229
2023-05-09T06:43:11.526Z,956.2924
2023-05-09T06:44:14.573Z,956.2706
2023-05-09T06:45:17.853Z,956.2518
2023-05-09T06:46:21.183Z,956.2488
2023-05-09T06:47:24.379Z,956.2559
2023-05-09T06:48:27.368Z,956.2559
2023-05-09T06:49:30.392Z,956.2542
2023-05-09T06:50:33.388Z,956.2259
2023-05-09T06:51:36.267Z,956.2107
2023-05-09T06:52:39.327Z,956.2000
2023-05-09T06:53:42.325Z,956.1888
2023-05-09T06:54:45.360Z,956.1818
2023-05-09T06:55:48.390Z,956.1959
2023-05-09T06:56:51.416Z,956.1989
2023-05-09T06:57:54.443Z,956.2089
2023-05-09T06:58:57.457Z,956.2000
2023-05-09T07:00:00.480Z,956.2012
2023-05-09T07:01:03.493Z,956.1994
2023-05-09T07:02:06.595Z,956.1876
2023-05-09T07:03:09.625Z,956.1824
2023-05-09T07:04:12.628Z,956.1788
2023-05-09T07:05:15.849Z,956.1653
2023-05-09T07:06:19.097Z,956.1570
2023-05-09T07:07:22.141Z,956.1206
2023-05-09T07:08:25.181Z,956.1094
2023-05-09T07:09:28.148Z,956.1024
2023-05-09T07:10:31.180Z,956.0829
2023-05-09T07:11:34.187Z,956.0653
2023-05-09T07:13:39.554Z,956.0753
2023-05-09T07:13:39.554Z,956.0850
2023-05-09T07:14:42.572Z,956.0765
2023-05-09T07:15:45.722Z,956.0571
2023-05-09T07:16:48.775Z,956.0453
2023-05-09T07:17:51.786Z,956.0370
2023-05-09T07:18:54.769Z,956.0400
2023-05-09T07:19:57.810Z,956.0065
2023-05-09T07:21:00.827Z,955.9788
2023-05-09T07:22:04.141Z,955.9553
2023-05-09T07:23:07.153Z,955.9394
2023-05-09T07:24:10.256Z,955.9347
2023-05-09T07:25:13.510Z,955.9077
2023-05-09T07:26:16.617Z,955.8936
2023-05-09T07:27:19.657Z,955.8800
2023-05-09T07:28:22.691Z,955.8577
2023-05-09T07:29:25.766Z,955.7988
2023-05-09T07:30:28.750Z,955.7859
2023-05-09T07:31:31.771Z,955.7629
2023-05-09T07:32:34.772Z,955.7388
2023-05-09T07:33:37.789Z,955.7224
2023-05-09T07:34:40.786Z,955.7083
2023-05-09T07:35:43.985Z,955.7120
2023-05-09T07:36:47.000Z,955.6953
2023-05-09T07:37:50.200Z,955.7067
2023-05-09T07:38:53.278Z,955.6871
2023-05-09T07:39:56.058Z,955.6653
2023-05-09T07:40:59.242Z,955.6647
2023-05-09T07:42:02.258Z,955.6600
2023-05-09T07:43:05.313Z,955.6476
2023-05-09T07:44:08.315Z,955.6483
2023-05-09T07:45:11.392Z,955.6306
2023-05-09T07:46:14.715Z,955.6094
2023-05-09T07:47:17.733Z,955.6058
2023-05-09T07:48:20.774Z,955.6041
2023-05-09T07:49:23.797Z,955.5959
2023-05-09T07:50:26.471Z,955.5873
2023-05-09T07:51:29.491Z,955.5771
2023-05-09T07:52:32.564Z,955.5629
2023-05-09T07:53:35.543Z,955.5506
2023-05-09T07:54:38.560Z,955.5365
2023-05-09T07:55:41.648Z,955.5259
2023-05-09T07:56:44.629Z,955.5053
2023-05-09T07:57:47.661Z,955.4818
2023-05-09T07:58:50.717Z,955.4706
2023-05-09T07:59:53.743Z,955.4541
2023-05-09T08:00:56.785Z,955.4329
2023-05-09T08:01:59.842Z,955.4147
2023-05-09T08:03:03.016Z,955.4018
2023-05-09T08:04:06.531Z,955.3847
2023-05-09T08:05:09.570Z,955.3506
2023-05-09T08:06:12.568Z,955.3029
2023-05-09T08:07:15.591Z,955.2877
2023-05-09T08:08:18.597Z,955.2841
2023-05-09T08:09:21.846Z,955.2776
2023-05-09T08:10:24.885Z,955.2671
2023-05-09T08:11:27.927Z,955.2518
2023-05-09T08:12:30.888Z,955.2365
2023-05-09T08:13:33.934Z,955.2318
2023-05-09T08:14:37.003Z,955.2294
2023-05-09T08:15:39.747Z,955.2293
2023-05-09T08:16:42.738Z,955.2194
2023-05-09T08:17:45.853Z,955.2012
2023-05-09T08:18:48.866Z,955.1624
2023-05-09T08:19:51.883Z,955.1371
2023-05-09T08:20:54.894Z,955.1094
2023-05-09T08:21:57.949Z,955.0977
2023-05-09T08:23:00.985Z,955.0653
2023-05-09T08:24:03.985Z,955.0453
2023-05-09T08:25:07.023Z,955.0212
2023-05-09T08:26:10.036Z,955.0000
2023-05-09T08:27:10.307Z,954.9764
2023-05-09T08:28:13.291Z,954.9441
2023-05-09T08:29:16.311Z,954.9100
2023-05-09T08:30:19.331Z,954.8882
2023-05-09T08:31:22.379Z,954.8611
2023-05-09T08:32:25.424Z,954.8453
2023-05-09T08:33:28.456Z,954.8459
2023-05-09T08:34:29.619Z,954.8411
2023-05-09T08:35:32.602Z,954.8218
2023-05-09T08:37:35.764Z,954.8006
2023-05-09T08:37:35.764Z,954.7986
2023-05-09T08:38:38.999Z,954.7913
2023-05-09T08:39:42.025Z,954.7647
2023-05-09T08:40:45.127Z,954.7482
2023-05-09T08:41:48.236Z,954.7311
2023-05-09T08:42:51.451Z,954.7307
2023-05-09T08:43:54.441Z,954.7224
2023-05-09T08:44:57.477Z,954.7065
2023-05-09T08:46:00.676Z,954.6942
2023-05-09T08:47:03.806Z,954.6906
2023-05-09T08:48:07.111Z,954.6960
2023-05-09T08:49:10.512Z,954.6829
2023-05-09T08:50:13.733Z,954.6471
2023-05-09T08:51:17.098Z,954.6207
2023-05-09T08:52:20.121Z,954.6165
2023-05-09T08:53:23.222Z,954.6024
2023-05-09T08:54:26.224Z,954.5888
2023-05-09T08:55:29.259Z,954.5876
2023-05-09T08:56:32.307Z,954.5676
2023-05-09T08:57:35.318Z,954.5518
2023-05-09T08:58:38.370Z,954.5347
2023-05-09T08:59:41.377Z,954.5065
2023-05-09T09:00:44.425Z,954.4800
2023-05-09T09:01:47.523Z,954.4800
2023-05-09T09:02:50.553Z,954.4630
2023-05-09T09:03:53.589Z,954.4318
2023-05-09T09:04:56.705Z,954.4006
2023-05-09T09:05:59.788Z,954.3747
2023-05-09T09:07:02.824Z,954.3594
2023-05-09T09:08:05.853Z,954.3253
2023-05-09T09:09:08.892Z,954.3065
2023-05-09T09:10:11.959Z,954.2959
2023-05-09T09:11:14.951Z,954.2870
2023-05-09T09:12:17.952Z,954.2500
2023-05-09T09:13:21.003Z,954.2365
2023-05-09T09:14:24.077Z,954.2429
2023-05-09T09:15:27.072Z,954.2376
2023-05-09T09:16:30.153Z,954.2294
2023-05-09T09:17:33.232Z,954.2253
2023-05-09T09:18:36.288Z,954.2235
2023-05-09T09:19:39.326Z,954.2188
2023-05-09T09:20:42.394Z,954.2012
2023-05-09T09:21:45.403Z,954.1989
2023-05-09T09:22:48.523Z,954.1824
2023-05-09T09:23:51.533Z,954.1758
2023-05-09T09:24:54.620Z,954.1718
2023-05-09T09:25:59.607Z,954.1617
2023-05-09T09:27:59.449Z,954.1257
2023-05-09T09:27:59.449Z,954.1487
2023-05-09T09:29:02.448Z,954.1229
2023-05-09T09:30:05.526Z,954.1135
2023-05-09T09:31:08.514Z,954.0806
2023-05-09T09:32:11.570Z,954.0400
2023-05-09T09:33:14.724Z,954.0394
2023-05-09T09:34:17.698Z,954.0370
2023-05-09T09:35:20.713Z,954.0194
2023-05-09T09:36:23.740Z,954.0059
2023-05-09T09:37:24.005Z,953.9886
2023-05-09T09:38:30.879Z,953.9637
2023-05-09T09:39:34.015Z,953.9359
2023-05-09T09:40:37.016Z,953.9129
2023-05-09T09:41:40.206Z,953.8847
2023-05-09T09:42:43.238Z,953.8741
2023-05-09T09:43:46.257Z,953.8712
2023-05-09T09:44:49.265Z,953.8765
2023-05-09T09:45:52.431Z,953.8671
2023-05-09T09:46:55.490Z,953.8370
2023-05-09T09:47:58.601Z,953.7935
2023-05-09T09:49:01.865Z,953.7653
2023-05-09T09:50:04.935Z,953.7665
2023-05-09T09:51:08.135Z,953.7736
2023-05-09T09:52:11.182Z,953.7589
2023-05-09T09:53:14.194Z,953.7353
2023-05-09T09:54:18.326Z,953.7429
2023-05-09T09:55:17.669Z,953.7056
2023-05-09T09:56:20.621Z,953.6829
2023-05-09T09:57:23.662Z,953.6547
2023-05-09T09:58:26.694Z,953.6436
2023-05-09T09:59:29.981Z,953.6141
2023-05-09T10:00:32.989Z,953.5959
2023-05-09T10:01:36.116Z,953.5970
2023-05-09T10:02:39.393Z,953.5986
2023-05-09T10:03:42.443Z,953.5789
2023-05-09T10:04:43.573Z,953.5622
2023-05-09T10:05:46.585Z,953.5424
2023-05-09T10:06:49.610Z,953.5394
2023-05-09T10:07:52.674Z,953.5018
2023-05-09T10:08:55.678Z,953.4911
2023-05-09T10:09:57.141Z,953.4800
2023-05-09T10:11:00.159Z,953.4571
2023-05-09T10:12:03.627Z,953.4106
2023-05-09T10:13:06.693Z,953.3541
2023-05-09T10:14:09.748Z,953.3353
2023-05-09T10:15:12.749Z,953.3194
2023-05-09T10:16:35.646Z,953.3076
2023-05-09T10:18:25.759Z,953.2657
2023-05-09T10:18:25.759Z,953.2806
2023-05-09T10:19:28.838Z,953.2441
2023-05-09T10:20:31.906Z,953.2206
2023-05-09T10:21:36.160Z,953.1812
2023-05-09T10:22:36.343Z,953.1600
2023-05-09T10:23:39.065Z,953.1260
2023-05-09T10:24:42.116Z,953.0982
2023-05-09T10:25:45.166Z,953.0765
2023-05-09T10:26:48.519Z,953.0653
2023-05-09T10:27:51.603Z,953.0535
2023-05-09T10:28:54.632Z,953.0471
2023-05-09T10:29:57.933Z,953.0447
2023-05-09T10:31:01.019Z,953.0406
2023-05-09T10:32:04.056Z,953.0194
2023-05-09T10:33:07.159Z,953.0112
2023-05-09T10:34:10.421Z,953.0020
2023-05-09T10:35:13.657Z,952.9764
2023-05-09T10:36:16.869Z,952.9594
2023-05-09T10:37:20.350Z,952.9293
2023-05-09T10:38:23.414Z,952.9053
2023-05-09T10:39:26.728Z,952.8776
2023-05-09T10:40:29.782Z,952.8400
2023-05-09T10:41:32.832Z,952.8182
2023-05-09T10:42:36.129Z,952.8571
2023-05-09T10:43:38.913Z,952.8560
2023-05-09T10:44:41.959Z,952.8435
2023-05-09T10:45:45.031Z,952.8606
2023-05-09T10:46:48.161Z,952.8529
2023-05-09T10:47:51.336Z,952.8423
2023-05-09T10:48:54.439Z,952.8188
2023-05-09T10:50:02.618Z,952.7936
2023-05-09T10:51:05.613Z,952.7600
2023-05-09T10:52:08.695Z,952.7288
2023-05-09T10:53:11.765Z,952.7053
2023-05-09T10:54:14.820Z,952.6441
2023-05-09T10:55:17.908Z,952.6171
2023-05-09T10:56:20.987Z,952.6071
2023-05-09T10:57:24.330Z,952.5941
2023-05-09T10:58:27.404Z,952.5600
2023-05-09T10:59:30.464Z,952.5147
2023-05-09T11:00:33.538Z,952.5089
2023-05-09T11:02:38.292Z,952.5024
2023-05-09T11:02:38.292Z,952.4950
2023-05-09T11:03:41.626Z,952.4583
2023-05-09T11:04:44.774Z,952.4459
2023-05-09T11:05:47.838Z,952.4406
2023-05-09T11:06:50.918Z,952.4141
2023-05-09T11:07:54.108Z,952.3936
2023-05-09T11:08:57.192Z,952.3788
2023-05-09T11:10:00.282Z,952.3541
2023-05-09T11:11:03.368Z,952.3435
2023-05-09T11:13:09.179Z,952.3035
2023-05-09T11:13:09.179Z,952.2800
2023-05-09T11:14:12.221Z,952.2712
2023-05-09T11:15:15.446Z,952.2277
2023-05-09T11:16:18.667Z,952.2000
2023-05-09T11:17:22.072Z,952.1759
2023-05-09T11:18:25.242Z,952.1658
2023-05-09T11:19:28.290Z,952.1594
2023-05-09T11:20:31.394Z,952.1389
2023-05-09T11:21:34.654Z,952.1193
2023-05-09T11:22:37.726Z,952.1017
2023-05-09T11:23:40.805Z,952.1053
2023-05-09T11:24:43.864Z,952.0970
2023-05-09T11:25:46.959Z,952.0918
2023-05-09T11:26:49.984Z,952.0724
2023-05-09T11:27:53.100Z,952.0812
2023-05-09T11:28:56.317Z,952.0653
2023-05-09T11:29:59.370Z,952.0635
2023-05-09T11:31:02.448Z,952.0424
2023-05-09T11:32:05.507Z,952.0259
2023-05-09T11:33:09.144Z,951.9913
2023-05-09T11:34:12.405Z,951.9353
2023-05-09T11:35:15.984Z,951.9194
2023-05-09T11:36:15.625Z,951.8700
2023-05-09T11:37:18.701Z,951.8676
2023-05-09T11:38:29.278Z,951.8612
2023-05-09T11:39:32.368Z,951.8182
2023-05-09T11:40:35.461Z,951.7877
2023-05-09T11:41:38.578Z,951.7500
2023-05-09T11:42:41.594Z,951.6982
2023-05-09T11:43:44.676Z,951.6876
2023-05-09T11:44:47.950Z,951.6365
2023-05-09T11:45:51.062Z,951.6253
2023-05-09T11:46:54.167Z,951.6218
2023-05-09T11:47:57.298Z,951.6006
2023-05-09T11:49:07.784Z,951.5994
2023-05-09T11:50:04.069Z,951.6013
2023-05-09T11:51:07.092Z,951.6106
2023-05-09T11:52:10.237Z,951.6088
2023-05-09T11:53:13.420Z,951.6158
2023-05-09T11:54:16.451Z,951.5965
2023-05-09T11:55:19.748Z,951.5682
2023-05-09T11:56:22.846Z,951.5576
2023-05-09T11:57:25.890Z,951.5558
2023-05-09T11:58:28.999Z,951.5676
2023-05-09T11:59:32.083Z,951.5671
2023-05-09T12:00:35.146Z,951.5671
2023-05-09T12:01:38.216Z,951.5453
2023-05-09T12:02:41.396Z,951.5411
2023-05-09T12:03:44.534Z,951.5424
2023-05-09T12:04:47.648Z,951.5071
2023-05-09T12:05:50.938Z,951.4907
2023-05-09T12:06:54.021Z,951.4583
2023-05-09T12:07:57.090Z,951.4388
2023-05-09T12:09:00.181Z,951.4376
2023-05-09T12:10:03.213Z,951.4353
2023-05-09T12:11:06.278Z,951.4094
2023-05-09T12:12:07.502Z,951.3731
2023-05-09T12:13:10.628Z,951.3747
2023-05-09T12:14:13.752Z,951.3594
2023-05-09T12:15:17.112Z,951.3435
2023-05-09T12:16:17.032Z,951.3358
2023-05-09T12:17:19.854Z,951.3260
2023-05-09T12:18:23.273Z,951.3187
2023-05-09T12:19:26.344Z,951.3242
2023-05-09T12:20:29.388Z,951.3171